Jericho Mills, Pennsylvania
Current Conditions -  °F | °C
As of 12:53 AM on Sunday 26 Oct 2014 (Local Time) from KSEG Reporting Station
Clear Clear  
Wind Chill: 53°   Ceiling: Unl
Heat Index: 53°   Visibility: 10mi
Dew Point: 43°   Wind: 3mph
Humidity: 69%   Direction: 220°SW
Pressure: 29.62"   Gusts: NA
Location:  40.5853°N, 77.3611°W
Report Text: KSEG 260453Z AUTO 22003KT 10SM CLR 12/06 A2962 RMK AO2 SLP030 T01170061 402170028
Loading
Personal Weather Stations






























Interactive Weather Map
Tropical Storm Tracking
New forecast layout! Learn more

10-Day Weather Forecast

Advertisements
Track Severe Weather on mobile